Time;durP1;ratioP1;P1;durP2;ratioP2;P2;SDS_P1;SDS_P2;PMS_P1;PMS_P2;Temp;Humidity;BMP_temperature;BMP_pressure;BME280_temperature;BME280_humidity;BME280_pressure;Samples;Min_cycle;Max_cycle;Signal;HPM_P1;HPM_P2
2023/03/29 00:02:28;;;;;;;1.73;1.48;;;5.40;99.90;;;;;;5012103;28;20202;-75
2023/03/29 00:04:56;;;;;;;2.25;2.05;;;5.40;99.90;;;;;;5012217;28;20213;-74
2023/03/29 00:07:24;;;;;;;3.10;1.40;;;5.40;99.90;;;;;;5011471;28;20199;-75
2023/03/29 00:09:51;;;;;;;2.90;1.85;;;5.40;99.90;;;;;;5010386;28;20392;-74
2023/03/29 00:12:18;;;;;;;2.38;1.65;;;5.40;99.90;;;;;;5011983;28;20198;-74
2023/03/29 00:17:14;;;;;;;5.60;1.60;;;5.40;99.90;;;;;;5010023;28;20229;-69
2023/03/29 00:19:43;;;;;;;2.50;1.90;;;5.40;99.90;;;;;;5011753;28;20713;-68
2023/03/29 00:22:10;;;;;;;1.75;1.52;;;5.40;99.90;;;;;;5011826;28;20217;-68
2023/03/29 00:24:37;;;;;;;1.52;1.40;;;5.40;99.90;;;;;;5016477;28;20198;-68
2023/03/29 00:27:03;;;;;;;2.35;2.15;;;5.30;99.90;;;;;;5013472;28;20206;-68
2023/03/29 00:29:31;;;;;;;5.20;2.00;;;5.20;99.90;;;;;;5005742;28;20221;-68
2023/03/29 00:31:58;;;;;;;2.30;2.03;;;5.10;99.90;;;;;;5011538;28;20678;-68
2023/03/29 00:34:29;;;;;;;2.83;1.92;;;5.10;99.90;;;;;;5011724;28;20227;-68
2023/03/29 00:37:00;;;;;;;2.47;2.28;;;5.10;99.90;;;;;;5011615;28;20222;-68
2023/03/29 00:39:28;;;;;;;2.53;2.33;;;5.10;99.90;;;;;;5011657;28;20241;-68
2023/03/29 00:41:55;;;;;;;2.40;2.15;;;5.10;99.90;;;;;;5011570;28;20221;-68
2023/03/29 00:44:55;;;;;;;1.60;1.50;;;5.20;99.90;;;;;;5011715;28;20205;-68
2023/03/29 00:47:26;;;;;;;2.58;2.20;;;5.20;99.90;;;;;;5010823;28;20490;-68
2023/03/29 00:49:56;;;;;;;2.20;2.00;;;5.20;99.90;;;;;;5030938;28;20244;-68
2023/03/29 00:52:29;;;;;;;2.60;2.40;;;5.10;99.90;;;;;;5031391;28;20210;-68
2023/03/29 00:54:59;;;;;;;2.67;1.92;;;5.10;99.90;;;;;;5031057;28;20206;-68
2023/03/29 00:57:28;;;;;;;2.15;1.80;;;5.10;99.90;;;;;;5030890;28;20544;-68
2023/03/29 00:59:56;;;;;;;2.30;2.00;;;5.10;99.90;;;;;;5030943;28;20249;-68
2023/03/29 01:02:27;;;;;;;1.70;1.60;;;5.10;99.90;;;;;;5030782;28;20198;-68
2023/03/29 01:04:59;;;;;;;4.38;2.53;;;5.10;99.90;;;;;;5030778;28;20194;-68
2023/03/29 01:07:30;;;;;;;4.68;2.45;;;5.10;99.90;;;;;;5030364;28;20193;-68
2023/03/29 01:10:04;;;;;;;4.55;2.58;;;5.10;99.90;;;;;;5029915;28;20260;-68
2023/03/29 01:12:34;;;;;;;3.22;2.25;;;5.10;99.90;;;;;;5030591;28;20204;-68
2023/03/29 01:15:06;;;;;;;2.70;2.22;;;5.10;99.90;;;;;;5030330;28;20232;-68
2023/03/29 01:17:33;;;;;;;3.05;2.10;;;5.10;99.90;;;;;;5030184;28;20209;-68
2023/03/29 01:20:09;;;;;;;2.40;2.05;;;5.10;99.90;;;;;;5030504;28;20217;-68
2023/03/29 01:22:50;;;;;;;3.78;2.22;;;5.10;99.90;;;;;;5030508;28;20201;-68
2023/03/29 01:25:25;;;;;;;2.20;1.83;;;5.10;99.90;;;;;;5030513;28;20244;-68
2023/03/29 01:27:56;;;;;;;2.70;2.50;;;5.10;99.90;;;;;;5013445;28;20220;-68
2023/03/29 01:30:28;;;;;;;2.80;2.25;;;5.10;99.90;;;;;;5010788;28;20221;-68
2023/03/29 01:32:59;;;;;;;2.03;1.77;;;5.10;99.90;;;;;;5010490;28;20218;-68
2023/03/29 01:35:31;;;;;;;4.32;2.50;;;5.10;99.90;;;;;;5010626;28;20272;-68
2023/03/29 01:38:04;;;;;;;2.33;2.15;;;5.00;99.90;;;;;;5010396;28;20213;-68
2023/03/29 01:40:33;;;;;;;2.30;1.80;;;5.00;99.90;;;;;;5010397;28;20217;-68
2023/03/29 01:43:07;;;;;;;2.22;2.03;;;5.00;99.90;;;;;;5010380;28;20569;-68
2023/03/29 01:45:38;;;;;;;2.50;2.10;;;5.10;99.90;;;;;;5010320;28;20221;-68
2023/03/29 01:48:10;;;;;;;2.97;2.40;;;5.00;99.90;;;;;;5010091;28;20665;-68
2023/03/29 01:50:42;;;;;;;3.22;1.90;;;5.00;99.90;;;;;;5010427;28;20219;-68
2023/03/29 01:53:16;;;;;;;3.40;1.70;;;4.90;99.90;;;;;;5010318;28;20619;-68
2023/03/29 01:55:49;;;;;;;2.67;1.67;;;4.80;99.90;;;;;;5010258;28;20205;-68
2023/03/29 01:58:19;;;;;;;2.50;2.30;;;4.80;99.90;;;;;;5010394;28;20209;-69
2023/03/29 02:00:48;;;;;;;2.20;2.00;;;4.80;99.90;;;;;;5010356;28;20246;-68
2023/03/29 02:03:17;;;;;;;3.88;2.47;;;4.80;99.90;;;;;;5029865;28;20236;-68
2023/03/29 02:05:45;;;;;;;3.28;1.65;;;4.80;99.90;;;;;;5029651;28;20272;-68
2023/03/29 02:08:15;;;;;;;1.80;1.50;;;4.70;99.90;;;;;;5029532;28;20201;-69
2023/03/29 02:10:42;;;;;;;2.05;1.85;;;4.80;99.90;;;;;;5029799;28;20221;-69
2023/03/29 02:13:09;;;;;;;1.98;1.67;;;4.80;99.90;;;;;;5027240;28;20202;-68
2023/03/29 02:15:37;;;;;;;2.17;1.98;;;4.70;99.90;;;;;;5009783;28;20249;-68
2023/03/29 02:18:05;;;;;;;2.70;1.52;;;4.70;99.90;;;;;;5009932;28;20809;-68
2023/03/29 02:20:35;;;;;;;2.60;2.00;;;4.70;99.90;;;;;;5010059;28;20222;-68
2023/03/29 02:23:09;;;;;;;2.15;1.90;;;4.80;99.90;;;;;;5012405;28;20202;-68
2023/03/29 02:25:37;;;;;;;2.40;2.20;;;4.70;99.90;;;;;;5014109;28;20679;-68
2023/03/29 02:28:05;;;;;;;2.80;2.08;;;4.70;99.90;;;;;;5023956;28;20236;-68
2023/03/29 02:30:40;;;;;;;3.72;2.08;;;4.70;99.90;;;;;;5033424;28;20220;-68
2023/03/29 02:33:13;;;;;;;2.38;2.08;;;4.70;99.90;;;;;;5033466;28;20197;-68
2023/03/29 02:35:48;;;;;;;2.30;1.95;;;4.70;99.90;;;;;;5033798;28;20204;-68
2023/03/29 02:38:16;;;;;;;6.03;2.28;;;4.70;99.90;;;;;;5033462;28;20861;-68
2023/03/29 02:40:43;;;;;;;3.05;2.42;;;4.80;99.90;;;;;;5033707;28;20638;-68
2023/03/29 02:43:12;;;;;;;3.58;1.85;;;4.80;99.90;;;;;;5033500;28;20210;-68
2023/03/29 02:45:42;;;;;;;2.05;1.40;;;4.80;99.90;;;;;;5033500;28;20197;-68
2023/03/29 02:48:13;;;;;;;2.03;1.60;;;4.80;99.90;;;;;;5033042;28;20230;-68
2023/03/29 02:50:40;;;;;;;1.90;1.70;;;4.80;99.90;;;;;;5033410;28;20858;-68
2023/03/29 02:53:12;;;;;;;1.85;1.63;;;4.80;99.90;;;;;;5033003;28;20229;-70
2023/03/29 02:55:39;;;;;;;2.75;1.92;;;4.80;99.90;;;;;;5033341;28;20234;-70
2023/03/29 02:58:07;;;;;;;2.92;1.83;;;4.80;99.90;;;;;;5024908;28;20198;-69
2023/03/29 03:00:35;;;;;;;2.70;2.20;;;4.80;99.90;;;;;;5033263;28;20221;-70
2023/03/29 03:03:04;;;;;;;2.20;1.77;;;4.80;99.90;;;;;;5033148;28;20213;-68
2023/03/29 03:05:31;;;;;;;5.65;2.58;;;4.70;99.90;;;;;;5033053;28;20703;-68
2023/03/29 03:07:58;;;;;;;2.20;2.00;;;4.70;99.90;;;;;;5032904;28;20201;-68
2023/03/29 03:10:25;;;;;;;1.30;1.20;;;4.60;99.90;;;;;;5032832;28;20225;-68
2023/03/29 03:12:52;;;;;;;2.08;1.65;;;4.60;99.90;;;;;;5032820;28;20669;-68
2023/03/29 03:15:19;;;;;;;2.47;1.40;;;4.60;99.90;;;;;;5032668;28;20550;-68
2023/03/29 03:17:48;;;;;;;2.05;1.85;;;4.60;99.90;;;;;;5032898;28;20610;-68
2023/03/29 03:20:16;;;;;;;1.95;1.75;;;4.60;99.90;;;;;;5032463;28;20280;-68
2023/03/29 03:22:47;;;;;;;1.38;1.27;;;4.60;99.90;;;;;;5033018;28;20202;-68
2023/03/29 03:25:15;;;;;;;1.52;1.38;;;4.70;99.90;;;;;;5032262;28;20232;-68
2023/03/29 03:27:43;;;;;;;2.78;1.40;;;4.70;99.90;;;;;;5032793;28;20229;-68
2023/03/29 03:30:11;;;;;;;2.28;1.52;;;4.70;99.90;;;;;;5032375;28;20271;-68
2023/03/29 03:32:38;;;;;;;2.20;2.00;;;4.80;99.90;;;;;;5032051;28;20812;-68
2023/03/29 03:35:06;;;;;;;2.20;1.65;;;4.80;99.90;;;;;;5032325;28;20207;-68
2023/03/29 03:37:34;;;;;;;4.10;1.70;;;4.90;99.90;;;;;;5032349;28;20288;-68
2023/03/29 03:40:02;;;;;;;1.98;1.77;;;5.00;99.90;;;;;;5030992;28;20245;-69
2023/03/29 03:42:29;;;;;;;2.50;2.03;;;5.00;99.90;;;;;;5012731;28;20252;-68
2023/03/29 03:44:56;;;;;;;2.05;1.40;;;5.10;99.90;;;;;;5012435;28;20663;-67
2023/03/29 03:47:23;;;;;;;2.47;1.80;;;5.20;99.90;;;;;;5012261;28;20198;-68
2023/03/29 03:49:51;;;;;;;2.83;1.67;;;5.20;99.90;;;;;;5012322;28;20230;-68
2023/03/29 03:52:18;;;;;;;6.60;1.90;;;5.30;99.90;;;;;;5012338;28;20205;-67
2023/03/29 03:54:47;;;;;;;1.27;1.17;;;5.30;99.90;;;;;;5012295;28;20198;-67
2023/03/29 03:57:14;;;;;;;1.83;1.25;;;5.40;99.90;;;;;;5011206;28;20210;-67
2023/03/29 03:59:40;;;;;;;1.60;1.40;;;5.40;99.90;;;;;;5011929;28;20310;-67
2023/03/29 04:02:07;;;;;;;1.42;1.33;;;5.50;99.90;;;;;;5011686;28;20206;-67
2023/03/29 04:04:34;;;;;;;1.50;1.20;;;5.60;99.90;;;;;;5011660;28;20201;-68
2023/03/29 04:07:02;;;;;;;1.73;1.60;;;5.70;99.90;;;;;;5011498;28;20213;-68
2023/03/29 04:09:30;;;;;;;1.30;1.20;;;5.80;99.90;;;;;;5011382;28;20276;-69
2023/03/29 04:11:58;;;;;;;2.28;1.63;;;5.80;99.90;;;;;;5011335;28;20227;-68
2023/03/29 04:14:25;;;;;;;2.00;1.73;;;5.80;99.90;;;;;;5012647;28;20199;-68
2023/03/29 04:16:52;;;;;;;2.30;2.05;;;5.90;99.90;;;;;;5011422;28;20202;-67
2023/03/29 04:19:20;;;;;;;1.58;1.23;;;6.00;99.90;;;;;;5011446;28;20214;-67
2023/03/29 04:21:48;;;;;;;1.42;1.33;;;6.00;99.90;;;;;;5011817;28;20201;-67
2023/03/29 04:24:16;;;;;;;2.05;1.75;;;6.00;99.90;;;;;;5010751;28;21125;-67
2023/03/29 04:26:42;;;;;;;2.17;1.50;;;6.00;99.90;;;;;;5011939;28;20206;-68
2023/03/29 04:29:11;;;;;;;2.42;1.33;;;6.10;99.90;;;;;;5022127;28;20206;-67
2023/03/29 04:31:37;;;;;;;1.65;1.55;;;6.10;99.90;;;;;;5031615;28;20712;-68
2023/03/29 04:34:04;;;;;;;1.65;1.25;;;6.10;99.90;;;;;;5031624;28;20202;-68
2023/03/29 04:36:31;;;;;;;1.58;1.17;;;6.10;99.90;;;;;;5031188;28;20204;-68
2023/03/29 04:39:00;;;;;;;1.33;1.23;;;6.20;99.90;;;;;;5030795;28;20861;-68
2023/03/29 04:41:27;;;;;;;2.85;1.90;;;6.20;99.90;;;;;;5031369;28;20221;-68
2023/03/29 04:43:54;;;;;;;3.97;1.48;;;6.20;99.90;;;;;;5030877;28;20208;-68
2023/03/29 04:46:24;;;;;;;2.00;1.83;;;6.20;99.90;;;;;;5030212;28;20661;-68
2023/03/29 04:48:51;;;;;;;2.25;1.48;;;6.20;99.90;;;;;;5030716;28;20236;-68
2023/03/29 04:51:18;;;;;;;2.08;1.58;;;6.30;99.90;;;;;;5030819;28;20224;-68
2023/03/29 04:53:45;;;;;;;1.50;1.38;;;6.30;99.90;;;;;;5031126;28;20217;-68
2023/03/29 04:56:12;;;;;;;2.60;1.67;;;6.30;99.90;;;;;;5030818;28;20206;-68
2023/03/29 04:58:38;;;;;;;1.77;1.42;;;6.40;99.90;;;;;;5030837;28;20205;-68
2023/03/29 05:01:06;;;;;;;1.58;1.48;;;6.30;99.90;;;;;;5026761;28;20226;-67
2023/03/29 05:03:34;;;;;;;1.67;1.42;;;6.30;99.90;;;;;;5000398;28;20222;-68
2023/03/29 05:06:05;;;;;;;1.85;1.30;;;6.30;99.90;;;;;;5028307;28;20729;-68
2023/03/29 05:08:32;;;;;;;1.40;1.30;;;6.10;99.90;;;;;;5030702;28;20208;-68
2023/03/29 05:10:58;;;;;;;1.60;1.20;;;6.10;99.90;;;;;;5030349;28;20248;-68
2023/03/29 05:13:25;;;;;;;3.03;1.52;;;6.10;99.90;;;;;;5017906;28;20479;-68
2023/03/29 05:15:52;;;;;;;1.30;1.17;;;6.10;99.90;;;;;;5010728;28;20564;-68
2023/03/29 05:18:18;;;;;;;2.65;1.92;;;6.10;99.90;;;;;;5010597;28;20578;-68
2023/03/29 05:20:46;;;;;;;1.52;1.42;;;6.00;99.90;;;;;;5011002;28;20226;-68
2023/03/29 05:23:13;;;;;;;1.45;1.35;;;6.10;99.90;;;;;;5010670;28;20225;-68
2023/03/29 05:25:42;;;;;;;1.30;1.20;;;6.10;99.90;;;;;;5010879;28;20256;-68
2023/03/29 05:28:09;;;;;;;1.75;1.50;;;6.10;99.90;;;;;;5010331;28;20207;-68
2023/03/29 05:30:36;;;;;;;2.13;1.40;;;6.20;99.90;;;;;;5010580;28;20222;-68
2023/03/29 05:33:04;;;;;;;2.88;1.20;;;6.20;99.90;;;;;;5010544;28;20838;-69
2023/03/29 05:35:30;;;;;;;2.63;1.60;;;6.30;99.90;;;;;;5010663;28;20208;-68
2023/03/29 05:37:59;;;;;;;1.65;1.20;;;6.30;99.90;;;;;;5010222;28;20198;-68
2023/03/29 05:40:26;;;;;;;1.92;1.63;;;6.40;99.90;;;;;;5010293;28;20272;-68
2023/03/29 05:42:53;;;;;;;2.22;1.52;;;6.40;99.90;;;;;;5010440;28;20206;-68
2023/03/29 05:45:21;;;;;;;1.60;1.40;;;6.40;99.90;;;;;;5010195;28;20615;-68
2023/03/29 05:47:48;;;;;;;1.65;1.15;;;6.40;99.90;;;;;;5010524;28;20199;-68
2023/03/29 05:50:15;;;;;;;2.63;1.30;;;6.40;99.90;;;;;;5009765;28;20690;-68
2023/03/29 05:52:42;;;;;;;2.05;1.25;;;6.50;99.90;;;;;;5025609;28;20202;-68
2023/03/29 05:55:10;;;;;;;1.73;1.35;;;6.60;99.90;;;;;;5029591;28;20205;-69
2023/03/29 05:57:37;;;;;;;2.17;1.10;;;6.60;99.90;;;;;;5029675;28;20201;-68
2023/03/29 06:00:12;;;;;;;1.40;1.15;;;6.70;99.90;;;;;;5029784;28;20229;-68
2023/03/29 06:02:40;;;;;;;0.90;0.80;;;6.70;99.90;;;;;;5030033;28;20201;-68
2023/03/29 06:05:07;;;;;;;3.92;1.20;;;6.80;99.90;;;;;;5029444;28;20212;-68
2023/03/29 06:07:34;;;;;;;1.20;1.00;;;6.80;99.90;;;;;;5029604;28;20198;-68
2023/03/29 06:10:03;;;;;;;1.60;1.50;;;6.90;99.90;;;;;;5029318;28;20222;-68
2023/03/29 06:12:31;;;;;;;1.10;1.00;;;7.00;99.90;;;;;;5029742;28;20685;-68
2023/03/29 06:15:03;;;;;;;2.35;1.27;;;7.00;99.90;;;;;;5067954;22;20233;-92
2023/03/29 06:17:32;;;;;;;3.40;1.55;;;7.10;99.90;;;;;;5069393;28;20241;-94
2023/03/29 06:19:59;;;;;;;1.75;1.40;;;7.20;99.90;;;;;;5064561;28;20200;-94
2023/03/29 06:22:27;;;;;;;1.80;1.52;;;7.30;99.90;;;;;;5069894;28;20189;-92
2023/03/29 06:24:55;;;;;;;2.60;1.42;;;7.40;99.90;;;;;;5065794;28;20228;-92
2023/03/29 06:27:30;;;;;;;1.80;1.38;;;7.60;99.90;;;;;;5069260;28;20200;-95
2023/03/29 06:30:13;;;;;;;1.90;1.40;;;7.70;99.90;;;;;;5075956;28;20200;-94
2023/03/29 06:32:49;;;;;;;1.60;1.08;;;7.90;99.90;;;;;;5074049;28;20201;-94
2023/03/29 06:35:28;;;;;;;1.50;1.40;;;8.00;99.90;;;;;;5075454;28;20235;-94
2023/03/29 06:37:57;;;;;;;1.20;1.05;;;8.10;99.90;;;;;;5076648;28;20177;-93
2023/03/29 06:40:26;;;;;;;1.58;1.27;;;8.20;99.90;;;;;;5075691;28;20231;-92
2023/03/29 06:45:52;;;;;;;1.42;1.27;;;8.30;99.90;;;;;;5072372;28;20216;-96
2023/03/29 06:48:20;;;;;;;1.33;1.23;;;8.30;99.90;;;;;;5073077;28;20205;-95
2023/03/29 06:50:57;;;;;;;2.35;1.10;;;8.40;99.90;;;;;;5072623;28;20233;-94
2023/03/29 06:53:33;;;;;;;1.55;1.45;;;8.50;99.90;;;;;;5076415;22;20233;-70
2023/03/29 06:56:04;;;;;;;2.50;1.33;;;8.50;99.90;;;;;;5027287;28;20210;-72
2023/03/29 06:58:31;;;;;;;1.35;1.10;;;8.60;99.90;;;;;;5029431;28;20209;-71
2023/03/29 07:01:02;;;;;;;1.60;1.35;;;8.70;99.90;;;;;;5030082;28;20693;-71
2023/03/29 07:03:29;;;;;;;1.63;1.38;;;8.70;99.90;;;;;;5031566;28;20289;-71
2023/03/29 07:06:02;;;;;;;1.10;1.00;;;8.70;99.90;;;;;;5031561;28;20205;-72
2023/03/29 07:08:30;;;;;;;1.60;1.20;;;8.80;99.90;;;;;;5027909;28;20203;-72
2023/03/29 07:10:58;;;;;;;1.25;1.15;;;8.70;99.90;;;;;;5014571;28;20226;-72
2023/03/29 07:13:25;;;;;;;5.72;1.50;;;8.80;99.90;;;;;;5014540;28;20226;-72
2023/03/29 07:15:52;;;;;;;1.20;1.10;;;8.70;99.90;;;;;;5014711;28;20199;-72
2023/03/29 07:18:20;;;;;;;1.73;1.63;;;8.80;99.90;;;;;;5014352;28;20239;-72
2023/03/29 07:20:47;;;;;;;2.10;1.50;;;8.90;99.90;;;;;;5015430;28;20215;-73
2023/03/29 07:23:14;;;;;;;1.40;1.30;;;9.00;99.90;;;;;;5014548;28;20202;-72
2023/03/29 07:25:41;;;;;;;2.10;1.70;;;9.00;99.90;;;;;;5017135;28;20202;-72
2023/03/29 07:28:08;;;;;;;3.58;1.63;;;9.10;99.90;;;;;;5020507;28;20206;-72
2023/03/29 07:30:35;;;;;;;1.40;1.30;;;9.10;99.90;;;;;;5013010;28;20222;-73
2023/03/29 07:33:03;;;;;;;2.90;1.30;;;9.20;99.90;;;;;;5031346;28;20206;-73
2023/03/29 07:35:31;;;;;;;1.67;1.23;;;9.20;99.90;;;;;;5033621;28;20287;-72
2023/03/29 07:37:58;;;;;;;3.28;1.30;;;9.30;99.90;;;;;;5032075;28;20590;-72
2023/03/29 07:40:25;;;;;;;3.35;1.75;;;9.50;99.90;;;;;;5019461;28;20218;-72
2023/03/29 07:42:53;;;;;;;1.40;1.30;;;9.50;99.90;;;;;;5021866;28;20201;-72
2023/03/29 07:45:22;;;;;;;2.15;1.55;;;9.40;99.90;;;;;;5032987;28;20201;-72
2023/03/29 07:47:50;;;;;;;4.22;1.23;;;9.50;99.90;;;;;;5025406;28;20261;-71
2023/03/29 07:50:17;;;;;;;1.85;1.42;;;9.50;99.90;;;;;;5013658;28;20256;-72
2023/03/29 07:52:45;;;;;;;2.55;1.42;;;9.40;99.90;;;;;;5013700;28;20219;-73
2023/03/29 07:55:13;;;;;;;1.85;1.25;;;9.40;99.90;;;;;;5012109;28;20214;-72
2023/03/29 07:57:42;;;;;;;1.77;1.20;;;9.40;99.90;;;;;;5012933;28;20229;-72
2023/03/29 08:00:13;;;;;;;1.45;1.23;;;9.40;99.90;;;;;;5011779;28;20231;-72
2023/03/29 08:02:40;;;;;;;1.20;1.00;;;9.40;99.90;;;;;;5012308;28;20210;-72
2023/03/29 08:05:08;;;;;;;2.13;1.30;;;9.50;99.90;;;;;;5011609;28;20237;-72
2023/03/29 08:07:35;;;;;;;3.45;1.45;;;9.70;99.90;;;;;;5012103;28;20199;-72
2023/03/29 08:10:04;;;;;;;1.40;1.30;;;9.80;99.90;;;;;;5020731;28;20225;-72
2023/03/29 08:12:31;;;;;;;1.30;1.20;;;9.90;99.90;;;;;;5032345;28;20284;-72
2023/03/29 08:14:57;;;;;;;1.65;1.30;;;10.00;99.90;;;;;;5022150;28;20202;-72
2023/03/29 08:17:24;;;;;;;3.40;1.63;;;10.00;99.90;;;;;;5010568;28;20790;-71
2023/03/29 08:19:51;;;;;;;1.52;1.13;;;10.10;99.90;;;;;;5011580;28;20717;-72
2023/03/29 08:22:18;;;;;;;1.30;1.20;;;10.10;99.90;;;;;;5012845;28;20230;-72
2023/03/29 08:24:45;;;;;;;1.30;1.10;;;10.10;99.90;;;;;;5013948;28;20190;-72
2023/03/29 08:27:13;;;;;;;1.20;0.98;;;10.10;99.90;;;;;;5013956;28;20198;-73
2023/03/29 08:29:40;;;;;;;1.77;1.00;;;10.20;99.90;;;;;;5018287;28;20616;-73
2023/03/29 08:32:07;;;;;;;2.33;1.40;;;10.30;99.90;;;;;;5018018;28;20249;-72
2023/03/29 08:34:34;;;;;;;2.65;1.35;;;10.30;99.90;;;;;;5015792;28;20301;-72
2023/03/29 08:37:01;;;;;;;1.65;1.20;;;10.20;99.90;;;;;;5013937;28;20225;-72
2023/03/29 08:39:28;;;;;;;1.85;1.33;;;10.10;99.90;;;;;;5011459;28;20602;-72
2023/03/29 08:42:09;;;;;;;3.05;1.35;;;10.00;99.90;;;;;;5012448;28;20202;-72
2023/03/29 08:44:55;;;;;;;1.85;1.67;;;10.00;99.90;;;;;;5012980;28;20206;-73
2023/03/29 08:47:29;;;;;;;1.60;1.50;;;10.10;99.90;;;;;;5010849;28;20562;-73
2023/03/29 08:49:56;;;;;;;2.20;1.60;;;10.00;99.90;;;;;;5011133;28;20312;-72
2023/03/29 08:52:31;;;;;;;1.45;1.35;;;10.10;99.90;;;;;;5010992;28;20233;-72
2023/03/29 08:55:00;;;;;;;3.92;1.45;;;10.10;99.90;;;;;;5011234;28;20579;-72
2023/03/29 08:57:31;;;;;;;1.85;1.60;;;10.10;99.90;;;;;;5011396;28;20226;-73
2023/03/29 09:00:04;;;;;;;3.05;1.08;;;10.20;99.90;;;;;;5010335;28;20226;-73
2023/03/29 09:02:33;;;;;;;1.30;1.20;;;10.20;99.90;;;;;;5012517;28;20650;-70
2023/03/29 09:05:07;;;;;;;1.98;1.45;;;10.10;99.90;;;;;;5019606;28;20598;-70
2023/03/29 09:07:34;;;;;;;1.48;1.30;;;10.20;99.90;;;;;;5010853;28;20238;-73
2023/03/29 09:10:01;;;;;;;2.60;1.05;;;10.40;99.90;;;;;;5011051;28;20222;-71
2023/03/29 09:12:38;;;;;;;1.55;1.35;;;10.60;99.90;;;;;;5011832;28;20226;-73
2023/03/29 09:15:17;;;;;;;3.40;1.35;;;10.80;99.90;;;;;;5011877;28;20298;-73
2023/03/29 09:17:58;;;;;;;1.38;1.10;;;10.90;99.90;;;;;;5014008;28;20212;-71
2023/03/29 09:20:38;;;;;;;2.20;1.52;;;11.20;99.90;;;;;;5013815;28;20222;-73
2023/03/29 09:23:23;;;;;;;1.92;1.58;;;11.50;99.90;;;;;;5011785;28;20203;-72
2023/03/29 09:25:56;;;;;;;1.20;1.10;;;11.50;99.00;;;;;;5021056;28;20252;-72
2023/03/29 09:28:33;;;;;;;2.25;1.10;;;11.60;98.90;;;;;;5006056;28;20209;-72
2023/03/29 09:31:06;;;;;;;2.33;1.65;;;11.60;98.80;;;;;;5019308;28;20233;-72
2023/03/29 09:33:41;;;;;;;4.72;1.55;;;11.80;99.40;;;;;;5026732;28;20260;-72
2023/03/29 09:36:11;;;;;;;1.67;1.20;;;11.80;98.80;;;;;;5123997;22;20251;-94
2023/03/29 09:38:43;;;;;;;1.90;1.58;;;11.90;97.90;;;;;;5071204;28;20235;-94
2023/03/29 09:41:21;;;;;;;1.45;1.00;;;12.00;97.60;;;;;;5064451;23;20622;-74
2023/03/29 09:43:49;;;;;;;1.63;1.50;;;11.90;97.40;;;;;;5031974;28;20225;-72
2023/03/29 09:46:22;;;;;;;1.48;1.30;;;12.00;97.50;;;;;;5014837;28;20213;-73
2023/03/29 09:48:50;;;;;;;2.03;1.45;;;12.20;97.60;;;;;;5023131;28;20233;-72
2023/03/29 09:51:19;;;;;;;2.15;1.55;;;12.30;96.70;;;;;;5003198;28;20622;-72
2023/03/29 09:53:46;;;;;;;1.30;1.20;;;12.30;97.00;;;;;;5011041;28;20201;-72
2023/03/29 09:56:14;;;;;;;1.42;1.33;;;12.30;97.20;;;;;;5014052;28;20285;-72
2023/03/29 09:58:42;;;;;;;2.22;1.52;;;12.40;96.40;;;;;;5030926;28;20201;-71
2023/03/29 10:01:14;;;;;;;2.35;1.30;;;12.40;97.30;;;;;;5030277;28;20226;-73
2023/03/29 10:03:47;;;;;;;2.70;1.35;;;12.70;97.40;;;;;;5024115;28;20209;-72
2023/03/29 10:06:14;;;;;;;1.83;1.50;;;12.90;96.40;;;;;;5010875;28;20199;-73
2023/03/29 10:08:45;;;;;;;1.42;1.33;;;13.20;96.10;;;;;;5010409;28;20252;-72
2023/03/29 10:11:20;;;;;;;1.57;1.33;;;13.40;96.40;;;;;;5007102;28;20328;-72
2023/03/29 10:13:50;;;;;;;1.63;1.50;;;13.50;96.30;;;;;;5007216;28;20464;-70
2023/03/29 10:16:20;;;;;;;1.53;1.40;;;13.70;96.10;;;;;;5019832;28;20464;-70
2023/03/29 10:18:49;;;;;;;1.93;1.40;;;13.90;96.00;;;;;;5011467;28;20496;-69
2023/03/29 10:21:19;;;;;;;1.23;1.10;;;14.00;95.80;;;;;;5007633;28;20492;-70
2023/03/29 10:23:46;;;;;;;4.10;1.30;;;13.90;95.00;;;;;;5007219;28;20465;-73
2023/03/29 10:26:21;;;;;;;1.53;1.40;;;13.70;95.40;;;;;;5010057;28;20472;-73
2023/03/29 10:28:50;;;;;;;1.43;1.33;;;13.90;96.10;;;;;;5029633;28;20947;-72
2023/03/29 10:31:19;;;;;;;2.17;1.33;;;13.90;94.90;;;;;;5002442;28;20489;-72
2023/03/29 10:33:52;;;;;;;2.33;1.60;;;14.50;95.20;;;;;;5010315;28;20479;-73
2023/03/29 10:36:21;;;;;;;1.40;1.30;;;16.10;93.70;;;;;;5001766;28;20462;-73
2023/03/29 10:38:48;;;;;;;1.60;1.37;;;18.00;92.50;;;;;;5016769;28;20460;-73
2023/03/29 10:41:17;;;;;;;1.60;1.30;;;19.90;90.20;;;;;;5024343;28;20913;-72
2023/03/29 10:43:45;;;;;;;1.33;1.20;;;21.60;85.10;;;;;;5020086;28;20880;-72
2023/03/29 10:46:20;;;;;;;1.27;1.17;;;22.30;81.80;;;;;;5013111;28;20461;-73
2023/03/29 10:48:48;;;;;;;1.70;1.37;;;21.90;81.00;;;;;;5012646;28;20476;-72
2023/03/29 10:51:18;;;;;;;2.40;1.37;;;21.60;81.00;;;;;;5012063;28;20609;-73
2023/03/29 10:53:45;;;;;;;1.90;1.40;;;21.60;81.30;;;;;;5021064;28;20487;-72
2023/03/29 10:56:24;;;;;;;2.40;1.73;;;21.90;81.40;;;;;;5017732;28;20496;-71
2023/03/29 10:59:09;;;;;;;2.87;1.83;;;21.80;80.70;;;;;;5032312;28;20967;-72
2023/03/29 11:01:47;;;;;;;2.53;1.50;;;20.70;81.60;;;;;;5022914;28;21058;-72
2023/03/29 11:04:25;;;;;;;1.70;1.30;;;19.70;83.70;;;;;;5032965;28;20475;-72
2023/03/29 11:07:07;;;;;;;1.37;1.27;;;18.80;84.60;;;;;;5032905;28;20491;-72
2023/03/29 11:09:46;;;;;;;1.87;1.30;;;18.00;86.30;;;;;;5034097;28;20487;-72
2023/03/29 11:12:19;;;;;;;1.67;1.57;;;17.70;87.50;;;;;;5034858;28;20495;-71
2023/03/29 11:14:58;;;;;;;2.30;1.93;;;17.60;88.60;;;;;;5027472;28;20468;-71
2023/03/29 11:17:41;;;;;;;2.73;1.77;;;17.60;88.30;;;;;;5033396;28;20722;-71
2023/03/29 11:20:20;;;;;;;1.87;1.33;;;17.40;88.10;;;;;;5032264;28;20483;-72
2023/03/29 11:22:59;;;;;;;1.53;1.10;;;17.30;88.40;;;;;;5033405;28;20466;-72
2023/03/29 11:25:36;;;;;;;1.30;1.20;;;17.50;89.40;;;;;;5014718;28;20467;-72
2023/03/29 11:28:09;;;;;;;1.50;1.23;;;17.60;88.60;;;;;;5012255;28;20457;-71
2023/03/29 11:30:42;;;;;;;1.70;1.60;;;17.70;88.20;;;;;;5013093;28;21012;-74
2023/03/29 11:33:20;;;;;;;1.83;1.30;;;18.50;88.30;;;;;;5012243;28;20566;-71
2023/03/29 11:35:55;;;;;;;2.67;1.80;;;20.50;88.10;;;;;;5021111;28;20467;-71
2023/03/29 11:38:29;;;;;;;2.33;1.50;;;22.20;83.40;;;;;;5006050;28;20468;-72
2023/03/29 11:41:03;;;;;;;1.70;1.60;;;22.00;79.00;;;;;;5022525;28;20485;-72
2023/03/29 11:43:34;;;;;;;1.53;1.20;;;20.00;82.40;;;;;;5014111;28;20858;-72
2023/03/29 11:46:08;;;;;;;1.77;1.20;;;19.50;81.90;;;;;;5013158;28;20470;-72
2023/03/29 11:48:41;;;;;;;1.43;1.20;;;19.70;80.70;;;;;;5015804;28;20469;-72
2023/03/29 11:51:14;;;;;;;1.33;1.23;;;19.80;79.60;;;;;;5015026;28;20505;-72
2023/03/29 11:53:49;;;;;;;1.03;0.77;;;20.10;77.20;;;;;;5013220;28;20852;-72
2023/03/29 11:56:22;;;;;;;1.50;1.40;;;20.10;76.00;;;;;;5013686;28;20464;-72
2023/03/29 11:58:55;;;;;;;1.20;1.10;;;19.80;76.90;;;;;;5012936;28;20468;-71
2023/03/29 12:01:27;;;;;;;1.20;1.10;;;19.30;77.50;;;;;;5005233;28;20488;-72
2023/03/29 12:03:57;;;;;;;3.67;1.60;;;18.70;78.60;;;;;;5022409;28;21008;-72
2023/03/29 12:06:28;;;;;;;1.20;1.03;;;18.10;78.90;;;;;;5032627;28;20468;-71
2023/03/29 12:09:00;;;;;;;1.33;1.20;;;17.40;81.20;;;;;;5031911;28;20467;-71
2023/03/29 12:11:31;;;;;;;2.00;1.20;;;17.10;82.30;;;;;;5013452;28;20489;-72
2023/03/29 12:14:03;;;;;;;1.57;1.20;;;16.70;82.50;;;;;;5012230;28;20492;-71
2023/03/29 12:16:35;;;;;;;1.67;1.10;;;16.20;83.00;;;;;;5012922;28;20469;-71
2023/03/29 12:19:06;;;;;;;1.50;1.17;;;16.10;83.80;;;;;;5014405;28;20465;-71
2023/03/29 12:21:35;;;;;;;2.30;1.10;;;16.10;84.20;;;;;;5026740;28;20492;-72
2023/03/29 12:24:04;;;;;;;1.83;1.10;;;16.40;82.50;;;;;;5012114;28;20985;-72
2023/03/29 12:27:01;;;;;;;1.30;1.20;;;16.80;83.30;;;;;;5026150;28;20456;-72
2023/03/29 12:29:57;;;;;;;1.10;1.00;;;17.00;82.20;;;;;;5016434;28;20957;-73
2023/03/29 12:32:51;;;;;;;2.50;1.10;;;17.10;81.40;;;;;;5006980;28;20485;-71
2023/03/29 12:35:29;;;;;;;2.50;1.33;;;16.90;83.50;;;;;;5011604;28;20491;-72
2023/03/29 12:38:06;;;;;;;1.47;1.20;;;16.40;84.20;;;;;;5011671;28;20543;-72
2023/03/29 12:40:42;;;;;;;1.50;1.00;;;16.30;85.20;;;;;;5031998;28;20866;-72
2023/03/29 12:43:20;;;;;;;1.37;1.23;;;16.20;85.60;;;;;;5031876;28;20463;-72
2023/03/29 12:45:49;;;;;;;1.47;1.20;;;16.20;85.10;;;;;;5035358;28;20494;-72
2023/03/29 12:48:19;;;;;;;1.53;1.00;;;16.20;85.10;;;;;;5033044;28;20460;-72
2023/03/29 12:50:50;;;;;;;1.10;0.93;;;16.10;85.50;;;;;;5016255;28;20481;-72
2023/03/29 12:53:22;;;;;;;1.97;1.33;;;15.90;86.90;;;;;;5011597;28;21021;-71
2023/03/29 12:55:56;;;;;;;1.10;1.00;;;15.90;88.20;;;;;;5000950;28;20477;-71
2023/03/29 12:58:38;;;;;;;2.00;1.30;;;15.80;88.90;;;;;;5005527;28;20470;-72
2023/03/29 13:01:07;;;;;;;1.43;1.27;;;15.90;89.90;;;;;;5002490;28;20485;-72
2023/03/29 13:03:48;;;;;;;1.87;1.40;;;15.80;89.90;;;;;;5010909;28;20472;-72
2023/03/29 13:06:27;;;;;;;1.20;1.10;;;15.60;91.00;;;;;;5009723;28;20570;-72
2023/03/29 13:09:00;;;;;;;1.50;1.10;;;15.50;92.30;;;;;;5020750;28;20994;-72
2023/03/29 13:11:33;;;;;;;1.93;1.50;;;15.50;92.10;;;;;;5003832;28;20488;-72
2023/03/29 13:14:03;;;;;;;1.43;1.10;;;15.20;92.90;;;;;;5007327;28;20489;-71
2023/03/29 13:16:33;;;;;;;3.03;1.30;;;14.90;93.70;;;;;;5010812;28;20472;-72